Wrightstown, Ohio
Current Conditions -  °F | °C
As of 10:55 AM on Thursday 27 Nov 2014 (Local Time) from KUNI Reporting Station
Haze Haze  
Wind Chill: 23°   Ceiling: 1400
Heat Index: 32°   Visibility: 5mi
Dew Point: 28°   Wind: 12mph
Humidity: 83%   Direction: 280°W
Pressure: 30.19"   Gusts: NA
Location:  39.5152°N, 82.0676°W
Report Text: KUNI 271555Z AUTO 28010KT 5SM HZ OVC014 00/M02 A3019 RMK AO2 T00001025
Loading
Personal Weather Stations






























Interactive Weather Map New forecast layout! Learn more

10-Day Weather Forecast

Advertisements
Track Severe Weather on mobile